Terminal Aerodrome Forecast
Issued by NWS Mobile, AL

Home | Current Version | Previous Version | Text Only | Print | Product List | Glossary On
Versions: 1 2 3 4 5 6 7 8 9 10 11 12 13 14 15
000
FTUS44 KMOB 261721
TAFMOB
TAF
KMOB 261721Z 2618/2718 26006KT P6SM BKN009 BKN016 OVC040
     FM261900 28008KT P6SM SCT018 SCT030
     FM270100 31004KT P6SM SKC
     FM271500 34007KT P6SM SCT250=

USA.gov is the U.S. government's official web portal to all federal, state and local government web resources and services.